Time;durP1;ratioP1;P1;durP2;ratioP2;P2;SDS_P1;SDS_P2;PMS_P1;PMS_P2;Temp;Humidity;BMP_temperature;BMP_pressure;BME280_temperature;BME280_humidity;BME280_pressure;Samples;Min_cycle;Max_cycle;Signal;HPM_P1;HPM_P2
2021/03/03 00:00:20;;;;;;;14.57;11.80;;;;;;;7.74;55.39;96934.00;5051382;28;20225;-85
2021/03/03 00:02:46;;;;;;;16.27;11.53;;;;;;;7.65;55.76;96929.63;5051452;28;20232;-82
2021/03/03 00:05:13;;;;;;;17.57;11.20;;;;;;;7.68;56.20;96939.63;5042364;28;20230;-85
2021/03/03 00:07:40;;;;;;;16.50;10.57;;;;;;;7.68;55.80;96930.19;5031755;28;20267;-83
2021/03/03 00:10:08;;;;;;;17.70;11.53;;;;;;;7.68;55.46;96931.94;5031921;28;20198;-84
2021/03/03 00:12:34;;;;;;;12.57;10.60;;;;;;;7.76;55.49;96939.81;5042105;28;20213;-85
2021/03/03 00:15:00;;;;;;;13.23;10.57;;;;;;;7.72;55.57;96936.69;5051707;28;20291;-85
2021/03/03 00:17:26;;;;;;;13.00;9.83;;;;;;;7.57;55.93;96937.94;5058407;28;20266;-85
2021/03/03 00:19:52;;;;;;;13.47;10.13;;;;;;;7.45;56.09;96933.81;5071569;28;20224;-86
2021/03/03 00:22:19;;;;;;;14.90;10.10;;;;;;;7.48;55.89;96936.94;5054749;28;20231;-83
2021/03/03 00:24:45;;;;;;;12.43;10.27;;;;;;;7.43;56.34;96933.13;5052340;28;20204;-83
2021/03/03 00:27:11;;;;;;;11.27;9.37;;;;;;;7.39;56.67;96934.28;5051118;28;20230;-83
2021/03/03 00:29:37;;;;;;;12.93;9.93;;;;;;;7.37;56.37;96931.03;5039360;28;20230;-85
2021/03/03 00:32:04;;;;;;;15.03;10.40;;;;;;;7.39;56.57;96931.72;5045319;28;20228;-86
2021/03/03 00:34:30;;;;;;;11.90;10.37;;;;;;;7.28;56.58;96930.03;5033026;28;20233;-85
2021/03/03 00:36:55;;;;;;;13.43;10.43;;;;;;;7.30;56.66;96932.47;5037801;28;20214;-83
2021/03/03 00:39:21;;;;;;;11.63;10.07;;;;;;;7.35;56.47;96927.78;5031515;28;20849;-82
2021/03/03 00:41:47;;;;;;;15.17;10.23;;;;;;;7.38;56.55;96923.22;5034049;28;20256;-82
2021/03/03 00:44:16;;;;;;;13.27;10.53;;;;;;;7.24;56.91;96919.22;5032335;28;20240;-83
2021/03/03 00:46:43;;;;;;;16.43;9.97;;;;;;;7.33;56.76;96914.28;5029467;28;20242;-84
2021/03/03 00:49:10;;;;;;;12.30;10.47;;;;;;;7.37;56.58;96915.66;5031081;28;20205;-84
2021/03/03 00:51:35;;;;;;;11.50;9.33;;;;;;;7.36;56.63;96911.47;5051410;28;20185;-83
2021/03/03 00:54:02;;;;;;;11.50;9.60;;;;;;;7.40;57.27;96917.97;5046369;28;20279;-83
2021/03/03 00:56:27;;;;;;;12.10;10.03;;;;;;;7.45;57.13;96915.88;5034895;28;20225;-84
2021/03/03 00:58:53;;;;;;;13.47;10.27;;;;;;;7.51;56.48;96902.53;5051750;28;20232;-81
2021/03/03 01:01:19;;;;;;;13.00;10.07;;;;;;;7.46;56.96;96909.81;5033155;28;20697;-85
2021/03/03 01:03:46;;;;;;;12.77;10.33;;;;;;;7.46;56.72;96895.25;5043432;28;20205;-85
2021/03/03 01:06:13;;;;;;;12.37;10.20;;;;;;;7.44;57.21;96915.06;5050982;28;20252;-85
2021/03/03 01:08:39;;;;;;;13.27;9.87;;;;;;;7.49;56.89;96896.75;5043743;28;20229;-84
2021/03/03 01:11:05;;;;;;;12.33;9.73;;;;;;;7.49;56.97;96901.88;5031416;28;20226;-86
2021/03/03 01:13:31;;;;;;;12.17;9.80;;;;;;;7.40;56.98;96903.41;5039834;28;20259;-85
2021/03/03 01:15:57;;;;;;;13.17;9.97;;;;;;;7.36;56.59;96898.66;5051815;28;20228;-83
2021/03/03 01:18:23;;;;;;;13.60;10.10;;;;;;;7.23;57.36;96901.41;5043490;28;20240;-84
2021/03/03 01:20:50;;;;;;;11.73;10.17;;;;;;;7.23;57.00;96894.53;5032140;28;20317;-84
2021/03/03 01:23:16;;;;;;;15.37;9.73;;;;;;;7.21;57.08;96891.28;5050969;28;20965;-86
2021/03/03 01:25:42;;;;;;;16.43;9.97;;;;;;;7.23;57.39;96886.03;5055198;28;20275;-85
2021/03/03 01:28:09;;;;;;;10.83;8.97;;;;;;;7.17;57.47;96897.59;5041709;28;20201;-81
2021/03/03 01:30:35;;;;;;;12.67;9.30;;;;;;;7.18;56.97;96893.28;5035076;28;20230;-85
2021/03/03 01:33:01;;;;;;;13.43;9.30;;;;;;;7.12;57.24;96883.53;5046823;28;20225;-83
2021/03/03 01:35:27;;;;;;;12.53;9.27;;;;;;;7.18;57.33;96881.28;5054602;28;20319;-85
2021/03/03 01:37:54;;;;;;;13.10;9.67;;;;;;;7.19;57.89;96882.91;5034999;28;20256;-85
2021/03/03 01:40:20;;;;;;;11.93;9.27;;;;;;;7.22;57.85;96869.84;5035111;28;20226;-83
2021/03/03 01:42:49;;;;;;;11.87;9.07;;;;;;;7.24;57.55;96870.56;5053221;28;20201;-84
2021/03/03 01:45:16;;;;;;;13.17;9.53;;;;;;;7.23;57.58;96870.66;5041974;28;20225;-84
2021/03/03 01:47:42;;;;;;;10.70;9.10;;;;;;;7.31;57.64;96867.50;5035082;28;20226;-85
2021/03/03 01:50:10;;;;;;;11.37;8.87;;;;;;;7.27;57.30;96865.19;5044840;28;20221;-84
2021/03/03 01:52:38;;;;;;;10.00;8.40;;;;;;;7.30;57.17;96864.13;5044191;28;20230;-84
2021/03/03 01:55:12;;;;;;;11.57;8.53;;;;;;;7.28;57.79;96860.88;5035238;28;20202;-83
2021/03/03 01:57:39;;;;;;;10.17;8.33;;;;;;;7.40;57.00;96865.00;5054879;28;20220;-87
2021/03/03 02:00:12;;;;;;;10.60;8.20;;;;;;;7.44;56.81;96868.94;5052736;28;20619;-83
2021/03/03 02:02:38;;;;;;;9.30;8.13;;;;;;;7.50;56.81;96872.75;5054902;28;20304;-85
2021/03/03 02:05:05;;;;;;;11.73;8.30;;;;;;;7.44;57.19;96873.25;5036494;28;20233;-85
2021/03/03 02:07:43;;;;;;;10.77;8.60;;;;;;;7.41;57.27;96871.75;5034693;28;20230;-84
2021/03/03 02:10:17;;;;;;;10.20;7.80;;;;;;;7.39;57.12;96875.34;5034219;28;20249;-85
2021/03/03 02:12:50;;;;;;;10.73;8.40;;;;;;;7.34;57.25;96873.16;5042105;28;20226;-81
2021/03/03 02:15:17;;;;;;;9.87;8.37;;;;;;;7.22;57.14;96869.03;5052068;28;20646;-85
2021/03/03 02:17:45;;;;;;;10.47;8.37;;;;;;;7.26;57.10;96862.75;5039758;28;20221;-83
2021/03/03 02:20:14;;;;;;;9.90;8.00;;;;;;;7.20;57.14;96876.03;5052874;28;20233;-84
2021/03/03 02:22:54;;;;;;;10.20;7.50;;;;;;;7.13;57.17;96864.66;5033646;28;20233;-83
2021/03/03 02:25:26;;;;;;;11.50;9.13;;;;;;;6.98;57.72;96871.81;5034043;28;20202;-85
2021/03/03 02:27:53;;;;;;;8.80;7.90;;;;;;;7.00;57.69;96869.94;5046480;28;20194;-84
2021/03/03 02:30:21;;;;;;;8.90;7.23;;;;;;;7.06;57.44;96866.91;5040210;28;20224;-82
2021/03/03 02:32:48;;;;;;;11.40;8.50;;;;;;;7.01;57.10;96881.00;5052982;28;20303;-85
2021/03/03 02:35:18;;;;;;;10.40;8.63;;;;;;;6.97;57.52;96880.44;5047065;28;20276;-84
2021/03/03 02:37:44;;;;;;;11.37;8.10;;;;;;;6.95;57.43;96882.31;5042808;28;20274;-82
2021/03/03 02:40:12;;;;;;;9.33;7.47;;;;;;;7.00;57.11;96874.25;5046908;28;20222;-85
2021/03/03 02:42:40;;;;;;;11.73;7.93;;;;;;;7.00;57.39;96874.25;5052768;28;20266;-84
2021/03/03 02:45:09;;;;;;;8.50;7.37;;;;;;;7.01;56.95;96875.88;5039123;28;20233;-83
2021/03/03 02:47:36;;;;;;;9.73;7.90;;;;;;;6.94;56.71;96876.38;5065525;28;20286;-84
2021/03/03 02:50:07;;;;;;;8.67;7.67;;;;;;;6.73;57.43;96883.22;5068801;28;20244;-82
2021/03/03 02:52:50;;;;;;;9.40;7.53;;;;;;;6.59;57.51;96876.59;5049473;28;20226;-84
2021/03/03 02:55:16;;;;;;;9.50;8.03;;;;;;;6.48;57.85;96878.38;5038229;28;20202;-83
2021/03/03 02:57:43;;;;;;;11.03;7.87;;;;;;;6.43;57.74;96865.94;5072989;28;20193;-85
2021/03/03 03:00:11;;;;;;;8.60;7.70;;;;;;;6.43;58.55;96878.72;5068440;28;20221;-84
2021/03/03 03:02:40;;;;;;;11.00;8.00;;;;;;;6.42;58.56;96873.72;5040980;28;20234;-85
2021/03/03 03:05:08;;;;;;;12.93;8.50;;;;;;;6.43;58.62;96868.50;5043904;28;20269;-82
2021/03/03 03:07:38;;;;;;;9.70;8.23;;;;;;;6.36;58.51;96869.88;5072992;28;20236;-80
2021/03/03 03:10:07;;;;;;;9.90;7.57;;;;;;;6.44;58.50;96864.19;5071241;28;20190;-82
2021/03/03 03:12:34;;;;;;;9.47;7.07;;;;;;;6.53;58.55;96873.72;5032776;28;20847;-83
2021/03/03 03:15:01;;;;;;;10.17;7.87;;;;;;;6.56;58.32;96856.34;5032916;28;20222;-84
2021/03/03 03:17:29;;;;;;;7.87;7.07;;;;;;;6.61;58.37;96868.81;5032389;28;20230;-82
2021/03/03 03:19:58;;;;;;;9.10;7.43;;;;;;;6.55;58.15;96857.28;5034320;28;20217;-84
2021/03/03 03:22:26;;;;;;;8.97;7.17;;;;;;;6.49;58.48;96856.97;5052165;28;20201;-84
2021/03/03 03:24:54;;;;;;;9.43;7.87;;;;;;;6.41;58.65;96859.31;5050832;28;20240;-83
2021/03/03 03:27:20;;;;;;;10.30;7.37;;;;;;;6.51;58.12;96868.72;5051729;28;20247;-82
2021/03/03 03:29:46;;;;;;;10.67;7.20;;;;;;;6.56;57.91;96858.09;5049087;28;20217;-82
2021/03/03 03:32:13;;;;;;;8.83;7.70;;;;;;;6.62;58.34;96855.06;5051345;28;20232;-83
2021/03/03 03:34:40;;;;;;;7.70;6.90;;;;;;;6.58;58.51;96857.06;5044062;28;20241;-82
2021/03/03 03:37:08;;;;;;;11.10;7.50;;;;;;;6.61;58.21;96865.44;5031124;28;20222;-83
2021/03/03 03:39:35;;;;;;;11.10;7.33;;;;;;;6.54;58.05;96865.91;5030972;28;20226;-83
2021/03/03 03:42:02;;;;;;;10.97;7.70;;;;;;;6.47;58.32;96864.78;5031077;28;20226;-83
2021/03/03 03:44:30;;;;;;;8.17;7.37;;;;;;;6.44;58.46;96865.00;5030720;28;20222;-85
2021/03/03 03:46:57;;;;;;;11.67;7.53;;;;;;;6.38;58.65;96862.91;5039143;28;20233;-83
2021/03/03 03:49:25;;;;;;;9.67;7.80;;;;;;;6.31;58.41;96866.09;5051990;28;20197;-84
2021/03/03 03:51:51;;;;;;;10.93;7.60;;;;;;;6.31;58.32;96866.91;5053659;28;20208;-85
2021/03/03 03:54:17;;;;;;;9.77;7.30;;;;;;;6.22;58.44;96863.28;5050017;28;20225;-85
2021/03/03 03:56:43;;;;;;;10.30;7.70;;;;;;;6.13;59.10;96866.56;5038669;28;20230;-83
2021/03/03 03:59:09;;;;;;;8.47;7.03;;;;;;;6.16;58.98;96878.28;5049799;28;20229;-83
2021/03/03 04:01:35;;;;;;;11.00;7.07;;;;;;;6.27;58.91;96874.91;5031277;28;20242;-83
2021/03/03 04:04:02;;;;;;;10.17;7.27;;;;;;;6.25;58.63;96885.25;5031871;28;20205;-85
2021/03/03 04:06:31;;;;;;;9.60;7.37;;;;;;;6.32;58.05;96883.06;5030180;28;20232;-83
2021/03/03 04:08:57;;;;;;;9.40;7.10;;;;;;;6.24;58.43;96886.19;5031856;28;20232;-84
2021/03/03 04:11:23;;;;;;;8.50;7.10;;;;;;;6.34;58.25;96884.56;5064611;28;20220;-83
2021/03/03 04:13:48;;;;;;;11.37;7.47;;;;;;;6.26;57.86;96879.22;5071889;28;20281;-86
2021/03/03 04:16:14;;;;;;;7.93;7.13;;;;;;;6.10;58.17;96889.81;5052613;28;20481;-81
2021/03/03 04:18:40;;;;;;;8.53;6.87;;;;;;;6.09;58.23;96895.03;5032020;28;20658;-81
2021/03/03 04:21:06;;;;;;;10.03;7.17;;;;;;;6.04;58.37;96886.91;5064847;28;20225;-84
2021/03/03 04:23:36;;;;;;;9.77;7.30;;;;;;;5.99;58.62;96894.09;5071452;28;20573;-83
2021/03/03 04:26:02;;;;;;;10.07;7.00;;;;;;;6.00;59.06;96895.72;5045126;28;20281;-82
2021/03/03 04:28:28;;;;;;;7.50;6.70;;;;;;;6.04;58.53;96900.50;5015416;28;20203;-85
2021/03/03 04:30:54;;;;;;;8.50;6.60;;;;;;;6.03;58.50;96896.31;5058294;28;20193;-82
2021/03/03 04:33:20;;;;;;;8.03;6.53;;;;;;;6.05;58.62;96893.63;5059548;28;20230;-81
2021/03/03 04:35:46;;;;;;;9.03;7.13;;;;;;;5.91;58.68;96899.78;5039321;28;20236;-82
2021/03/03 04:38:12;;;;;;;9.57;7.10;;;;;;;5.89;58.76;96893.97;5055161;28;20228;-85
2021/03/03 04:40:39;;;;;;;7.67;6.57;;;;;;;5.95;58.25;96892.72;5071466;28;20228;-85
2021/03/03 04:43:05;;;;;;;9.77;6.60;;;;;;;5.98;58.09;96895.84;5056554;28;20204;-86
2021/03/03 04:45:31;;;;;;;8.33;7.13;;;;;;;5.96;58.16;96902.00;5033443;28;20265;-84
2021/03/03 04:47:56;;;;;;;7.00;6.30;;;;;;;5.98;58.32;96895.84;5059187;28;20233;-83
2021/03/03 04:50:23;;;;;;;9.27;6.53;;;;;;;5.92;58.89;96898.06;5060724;28;20236;-84
2021/03/03 04:52:49;;;;;;;8.83;6.17;;;;;;;5.86;59.25;96894.19;5039245;28;20233;-85
2021/03/03 04:55:14;;;;;;;7.73;6.93;;;;;;;5.84;58.71;96891.72;5033422;28;20201;-83
2021/03/03 04:57:41;;;;;;;10.53;6.73;;;;;;;5.86;58.51;96882.22;5047842;28;20549;-85
2021/03/03 05:00:08;;;;;;;8.60;6.87;;;;;;;5.75;59.35;96889.06;5054483;28;20288;-84
2021/03/03 05:02:34;;;;;;;8.57;7.03;;;;;;;5.77;59.39;96882.88;5044308;28;20226;-83
2021/03/03 05:05:00;;;;;;;7.77;6.77;;;;;;;5.76;59.30;96877.91;5034833;28;20237;-85
2021/03/03 05:07:26;;;;;;;10.00;7.13;;;;;;;5.77;58.72;96877.00;5044856;28;20225;-83
2021/03/03 05:09:52;;;;;;;9.83;6.67;;;;;;;5.84;58.67;96878.97;5055124;28;20209;-85
2021/03/03 05:12:18;;;;;;;10.03;6.43;;;;;;;5.78;58.73;96876.84;5038505;28;20230;-84
2021/03/03 05:14:44;;;;;;;9.73;7.27;;;;;;;5.83;58.84;96877.31;5034544;28;20236;-84
2021/03/03 05:17:10;;;;;;;10.90;6.63;;;;;;;5.92;58.30;96873.31;5043086;28;20314;-85
2021/03/03 05:19:36;;;;;;;9.80;6.93;;;;;;;5.79;59.08;96877.66;5054357;28;20252;-85
2021/03/03 05:22:02;;;;;;;9.47;7.03;;;;;;;5.91;58.61;96866.56;5049051;28;20226;-85
2021/03/03 05:24:28;;;;;;;10.03;7.03;;;;;;;5.99;58.46;96871.09;5034656;28;20252;-83
2021/03/03 05:26:54;;;;;;;9.07;6.80;;;;;;;5.96;58.26;96861.94;5041772;28;20594;-84
2021/03/03 05:29:20;;;;;;;10.33;8.23;;;;;;;5.91;58.09;96864.00;5044540;28;20234;-85
2021/03/03 05:31:47;;;;;;;7.87;6.70;;;;;;;5.74;58.67;96867.00;5036131;28;20225;-83
2021/03/03 05:34:13;;;;;;;10.80;7.50;;;;;;;5.79;58.51;96862.34;5035475;28;20609;-84
2021/03/03 05:36:39;;;;;;;8.20;6.30;;;;;;;5.76;58.96;96860.03;5045380;28;20271;-84
2021/03/03 05:39:05;;;;;;;11.03;6.93;;;;;;;5.79;58.93;96864.88;5039558;28;20226;-84
2021/03/03 05:41:32;;;;;;;7.50;6.40;;;;;;;5.87;58.79;96860.03;5036480;28;20221;-83
2021/03/03 05:43:59;;;;;;;7.27;5.87;;;;;;;5.95;58.98;96859.50;5035618;28;20229;-83
2021/03/03 05:46:26;;;;;;;8.43;6.57;;;;;;;5.93;58.47;96863.91;5035260;28;20609;-83
2021/03/03 05:49:01;;;;;;;10.33;6.53;;;;;;;5.99;58.31;96863.41;5021051;28;20557;-84
2021/03/03 05:51:30;;;;;;;10.80;6.93;;;;;;;5.99;59.24;96868.53;5032570;28;20218;-83
2021/03/03 05:53:56;;;;;;;11.10;7.50;;;;;;;5.98;60.01;96872.00;5035061;28;20222;-85
2021/03/03 05:56:25;;;;;;;10.53;6.90;;;;;;;5.93;60.00;96863.91;5033555;28;20237;-85
2021/03/03 05:58:51;;;;;;;15.87;11.67;;;;;;;5.89;59.23;96858.19;5033728;28;20222;-85
2021/03/03 06:01:18;;;;;;;35.17;26.07;;;;;;;5.64;60.55;96868.59;5034447;28;20218;-84
2021/03/03 06:03:44;;;;;;;16.40;10.13;;;;;;;5.76;59.66;96868.50;5054388;28;20597;-84
2021/03/03 06:06:12;;;;;;;10.43;7.30;;;;;;;5.85;59.32;96869.56;5036698;28;20242;-85
2021/03/03 06:08:38;;;;;;;8.43;6.50;;;;;;;5.97;58.98;96868.63;5045090;28;20641;-84
2021/03/03 06:11:05;;;;;;;7.33;5.83;;;;;;;6.12;58.48;96867.50;5052488;28;20227;-83
2021/03/03 06:13:31;;;;;;;9.07;6.03;;;;;;;6.27;57.63;96864.69;5053900;28;20197;-82
2021/03/03 06:15:57;;;;;;;6.93;5.50;;;;;;;6.35;56.46;96862.38;5054958;28;20221;-84
2021/03/03 06:18:25;;;;;;;7.43;5.50;;;;;;;6.43;56.21;96870.25;5053231;28;20225;-83
2021/03/03 06:20:53;;;;;;;7.77;5.47;;;;;;;6.50;56.45;96877.34;5026827;28;20284;-83
2021/03/03 06:23:21;;;;;;;11.03;5.30;;;;;;;6.58;56.01;96871.59;5033120;28;20233;-84
2021/03/03 06:25:49;;;;;;;11.87;5.80;;;;;;;6.70;55.96;96864.72;5034206;28;20234;-85
2021/03/03 06:28:32;;;;;;;11.40;5.47;;;;;;;6.78;55.33;96860.59;5034208;28;20202;-84
2021/03/03 06:30:58;;;;;;;11.87;6.37;;;;;;;6.93;56.09;96861.13;5033548;28;20206;-83
2021/03/03 06:33:27;;;;;;;15.93;5.63;;;;;;;7.23;55.40;96857.88;5032264;28;20229;-82
2021/03/03 06:35:53;;;;;;;13.30;6.10;;;;;;;7.46;54.51;96848.31;5032665;28;20230;-82
2021/03/03 06:38:30;;;;;;;8.33;5.03;;;;;;;7.49;53.64;96855.75;5050973;28;20229;-82
2021/03/03 06:40:58;;;;;;;9.53;5.23;;;;;;;7.42;54.35;96857.19;5052589;28;20225;-82
2021/03/03 06:43:26;;;;;;;9.50;5.53;;;;;;;7.36;54.62;96853.34;5051937;28;20202;-81
2021/03/03 06:45:53;;;;;;;14.87;5.70;;;;;;;7.39;54.71;96862.53;5052054;28;20743;-83
2021/03/03 06:48:38;;;;;;;9.70;5.80;;;;;;;7.45;53.50;96846.69;5051380;28;20232;-83
2021/03/03 06:51:24;;;;;;;11.37;5.30;;;;;;;7.42;54.10;96849.50;5052864;28;20825;-86
2021/03/03 06:53:52;;;;;;;12.70;5.27;;;;;;;7.43;54.28;96851.94;5054498;28;20225;-86
2021/03/03 06:56:38;;;;;;;14.93;5.50;;;;;;;7.49;53.42;96848.06;5044391;28;20226;-84
2021/03/03 06:59:27;;;;;;;10.37;6.27;;;;;;;7.58;53.73;96849.84;5040639;28;20232;-82
2021/03/03 07:01:54;;;;;;;13.13;6.27;;;;;;;7.68;53.67;96840.47;5052530;28;20229;-85
2021/03/03 07:04:26;;;;;;;11.03;5.60;;;;;;;7.71;53.99;96847.88;5054304;28;20205;-83
2021/03/03 07:06:53;;;;;;;12.93;5.30;;;;;;;7.69;53.67;96848.97;5053676;28;20252;-83
2021/03/03 07:09:21;;;;;;;11.83;4.73;;;;;;;7.74;53.98;96851.94;5052357;28;20232;-83
2021/03/03 07:11:48;;;;;;;10.43;5.03;;;;;;;7.74;54.14;96860.44;5052556;28;20233;-83
2021/03/03 07:14:20;;;;;;;12.53;5.87;;;;;;;7.81;54.18;96856.44;5053254;28;20236;-83
2021/03/03 07:17:03;;;;;;;9.67;5.07;;;;;;;7.90;53.12;96859.97;5053741;28;20221;-83
2021/03/03 07:19:29;;;;;;;9.73;4.57;;;;;;;7.90;52.48;96863.34;5051340;28;20197;-83
2021/03/03 07:21:55;;;;;;;10.73;4.10;;;;;;;7.94;51.78;96869.06;5052511;28;20217;-81
2021/03/03 07:24:47;;;;;;;11.80;4.53;;;;;;;8.01;51.61;96869.34;5052452;28;20237;-83
2021/03/03 07:27:21;;;;;;;11.97;4.13;;;;;;;8.14;51.81;96875.88;5046674;28;20279;-84
2021/03/03 07:29:58;;;;;;;19.70;4.03;;;;;;;8.19;51.00;96875.50;5052149;28;20260;-83
2021/03/03 07:32:24;;;;;;;13.67;4.83;;;;;;;8.28;51.62;96878.09;5051971;28;20225;-82
2021/03/03 07:34:52;;;;;;;9.77;4.87;;;;;;;8.40;51.30;96881.41;5052429;28;20225;-82
2021/03/03 07:37:20;;;;;;;12.57;4.60;;;;;;;8.51;51.26;96877.91;5043627;28;20229;-80
2021/03/03 07:39:50;;;;;;;13.70;4.53;;;;;;;8.65;51.09;96877.56;5059709;28;20231;-83
2021/03/03 07:42:20;;;;;;;10.20;4.63;;;;;;;8.76;50.65;96868.91;5056876;28;20315;-84
2021/03/03 07:44:47;;;;;;;10.07;4.63;;;;;;;8.96;50.19;96879.06;5047564;28;20224;-86
2021/03/03 07:47:15;;;;;;;16.00;6.00;;;;;;;9.21;49.77;96867.44;5042947;28;20261;-84
2021/03/03 07:49:42;;;;;;;23.97;8.10;;;;;;;9.28;49.58;96865.94;5031537;28;20277;-83
2021/03/03 07:52:08;;;;;;;26.60;6.23;;;;;;;9.30;49.54;96866.63;5056415;28;20198;-82
2021/03/03 07:54:35;;;;;;;19.63;5.07;;;;;;;9.30;49.36;96871.75;5037762;28;20217;-82
2021/03/03 07:57:09;;;;;;;15.93;5.40;;;;;;;9.34;49.47;96867.16;5049962;28;20294;-85
2021/03/03 07:59:36;;;;;;;15.37;4.70;;;;;;;9.40;49.22;96865.81;5059787;28;20286;-86
2021/03/03 08:02:02;;;;;;;11.03;4.97;;;;;;;9.41;50.12;96865.66;5048371;28;20512;-84
2021/03/03 08:04:36;;;;;;;8.27;4.43;;;;;;;9.45;50.42;96876.47;5051734;28;20742;-86
2021/03/03 08:07:29;;;;;;;9.53;4.23;;;;;;;9.55;49.11;96867.81;5056669;28;20248;-84
2021/03/03 08:10:33;;;;;;;7.90;4.10;;;;;;;9.77;48.86;96871.00;5025403;28;20233;-83
2021/03/03 08:13:10;;;;;;;10.00;3.80;;;;;;;9.75;48.45;96868.56;5052366;28;20232;-84
2021/03/03 08:15:40;;;;;;;9.97;4.27;;;;;;;9.76;48.94;96875.34;5031428;28;20230;-85
2021/03/03 08:18:20;;;;;;;7.90;4.07;;;;;;;9.72;49.41;96871.41;5038050;28;20237;-83
2021/03/03 08:20:48;;;;;;;8.23;4.10;;;;;;;9.72;49.54;96868.03;5042168;28;20236;-81
2021/03/03 08:23:56;;;;;;;8.37;4.33;;;;;;;9.72;49.35;96868.03;5043009;28;20226;-84
2021/03/03 08:26:41;;;;;;;8.57;4.30;;;;;;;9.74;49.62;96859.22;5005128;28;20233;-82
2021/03/03 08:29:27;;;;;;;9.27;4.43;;;;;;;9.74;49.47;96874.66;5044750;28;20246;-84
2021/03/03 08:32:23;;;;;;;6.50;4.33;;;;;;;9.81;49.34;96872.34;5034546;28;20204;-84
2021/03/03 08:34:55;;;;;;;7.60;4.03;;;;;;;9.85;49.48;96871.91;5045468;28;20222;-82
2021/03/03 08:37:29;;;;;;;8.10;3.97;;;;;;;9.91;49.17;96870.56;5045095;28;20309;-81
2021/03/03 08:39:55;;;;;;;6.60;3.90;;;;;;;10.01;49.12;96879.84;5047232;28;20316;-83
2021/03/03 08:42:42;;;;;;;8.63;4.20;;;;;;;10.12;48.30;96867.78;5052934;28;20355;-84
2021/03/03 08:45:14;;;;;;;8.40;4.07;;;;;;;10.26;48.39;96868.13;5031786;28;20255;-84
2021/03/03 08:48:00;;;;;;;4.37;3.33;;;;;;;10.33;47.73;96868.38;5032382;28;20206;-85
2021/03/03 08:50:30;;;;;;;10.17;3.50;;;;;;;10.37;47.42;96867.16;5041920;28;20693;-84
2021/03/03 08:53:32;;;;;;;8.50;3.77;;;;;;;10.47;46.94;96862.75;5037005;28;20224;-86
2021/03/03 08:55:59;;;;;;;6.57;3.30;;;;;;;10.49;46.88;96860.03;5056411;28;20231;-84
2021/03/03 08:59:02;;;;;;;3.90;3.43;;;;;;;10.55;46.42;96860.28;5039176;28;20203;-84
2021/03/03 09:01:55;;;;;;;5.47;3.07;;;;;;;10.63;46.18;96864.69;5060980;28;20231;-85
2021/03/03 09:04:23;;;;;;;5.73;3.10;;;;;;;10.71;46.43;96867.34;5050231;28;20220;-85
2021/03/03 09:06:50;;;;;;;6.27;3.10;;;;;;;10.78;45.31;96863.22;5037878;28;20283;-84
2021/03/03 09:09:16;;;;;;;5.27;3.30;;;;;;;10.93;45.63;96866.13;5032845;28;20229;-82
2021/03/03 09:11:42;;;;;;;6.70;3.40;;;;;;;10.99;45.77;96862.94;5030297;28;20617;-86
2021/03/03 09:14:08;;;;;;;6.50;3.50;;;;;;;11.04;45.06;96868.47;5027252;28;20209;-84
2021/03/03 09:16:34;;;;;;;4.23;3.80;;;;;;;11.07;45.28;96868.16;5031494;28;20226;-83
2021/03/03 09:19:06;;;;;;;4.93;3.30;;;;;;;11.03;44.85;96862.50;5045634;28;20221;-82
2021/03/03 09:21:32;;;;;;;5.63;3.53;;;;;;;11.10;45.07;96864.50;5048865;28;20240;-83
2021/03/03 09:24:09;;;;;;;6.27;3.60;;;;;;;11.20;44.73;96867.78;5044762;28;20279;-83
2021/03/03 09:26:35;;;;;;;4.50;3.10;;;;;;;11.31;45.22;96859.84;5028535;28;20253;-86
2021/03/03 09:29:01;;;;;;;8.40;3.70;;;;;;;11.39;44.75;96852.97;5033044;28;20198;-85
2021/03/03 09:31:30;;;;;;;12.00;3.87;;;;;;;11.51;44.77;96848.38;5041022;28;20898;-85
2021/03/03 09:33:56;;;;;;;9.50;3.73;;;;;;;11.59;44.59;96855.34;5038078;28;20225;-82
2021/03/03 09:36:23;;;;;;;5.63;3.70;;;;;;;11.68;44.88;96855.25;5045734;28;20222;-86
2021/03/03 09:38:57;;;;;;;11.87;4.07;;;;;;;11.77;43.73;96848.38;5036533;28;20277;-81
2021/03/03 09:41:24;;;;;;;8.47;4.03;;;;;;;11.90;43.86;96853.16;5036868;28;20224;-85
2021/03/03 09:44:01;;;;;;;8.73;4.00;;;;;;;11.96;42.12;96845.59;5040154;28;20217;-86
2021/03/03 09:46:27;;;;;;;10.40;3.90;;;;;;;12.06;43.29;96842.91;5056321;28;20254;-84
2021/03/03 09:48:53;;;;;;;11.00;3.73;;;;;;;12.18;42.71;96841.66;5068516;28;20240;-85
2021/03/03 09:51:19;;;;;;;6.83;3.53;;;;;;;12.32;42.34;96842.84;5068162;28;20646;-84
2021/03/03 09:53:53;;;;;;;7.00;3.83;;;;;;;12.42;40.77;96836.59;5066583;28;20223;-85
2021/03/03 09:56:27;;;;;;;6.27;3.73;;;;;;;12.52;40.75;96833.84;5057818;28;20224;-84
2021/03/03 09:58:53;;;;;;;10.07;4.07;;;;;;;12.57;40.64;96841.94;5067154;28;20877;-82
2021/03/03 10:01:19;;;;;;;5.03;3.80;;;;;;;12.56;40.33;96842.91;5032378;28;20229;-84
2021/03/03 10:03:45;;;;;;;8.20;4.37;;;;;;;12.51;38.43;96850.31;5048494;28;20225;-83
2021/03/03 10:06:11;;;;;;;6.77;4.30;;;;;;;12.54;38.66;96842.25;5051146;28;20229;-83
2021/03/03 10:08:38;;;;;;;13.27;4.50;;;;;;;12.56;38.69;96844.69;5039302;28;20279;-84
2021/03/03 10:11:05;;;;;;;10.93;4.60;;;;;;;12.65;40.71;96838.59;5041412;28;20568;-85
2021/03/03 10:13:31;;;;;;;9.00;4.00;;;;;;;12.77;40.48;96840.72;5033852;28;20210;-85
2021/03/03 10:15:57;;;;;;;7.73;3.70;;;;;;;12.91;39.49;96846.22;5047113;28;20240;-85
2021/03/03 10:18:23;;;;;;;12.73;4.60;;;;;;;12.95;38.97;96839.75;5034570;28;20282;-85
2021/03/03 10:20:51;;;;;;;6.73;4.73;;;;;;;12.94;38.91;96836.38;5044146;28;20250;-84
2021/03/03 10:23:18;;;;;;;14.97;4.30;;;;;;;12.91;38.16;96835.88;5043167;28;20230;-85
2021/03/03 10:25:46;;;;;;;6.67;4.50;;;;;;;12.87;38.68;96832.00;5037962;28;20218;-86
2021/03/03 10:28:17;;;;;;;9.97;4.10;;;;;;;12.97;39.21;96832.66;5034694;28;20760;-86
2021/03/03 10:30:47;;;;;;;10.33;3.90;;;;;;;12.88;38.36;96823.28;5044250;28;20218;-84
2021/03/03 10:33:26;;;;;;;6.07;4.07;;;;;;;13.01;37.40;96826.19;5042505;28;20252;-86
2021/03/03 10:35:53;;;;;;;6.13;3.73;;;;;;;13.11;38.85;96819.88;5046066;28;20302;-86
2021/03/03 10:38:21;;;;;;;7.10;3.50;;;;;;;13.22;38.63;96815.41;5035375;28;20218;-84
2021/03/03 10:40:49;;;;;;;9.53;4.07;;;;;;;13.29;38.06;96824.13;5045099;28;20222;-85
2021/03/03 10:43:17;;;;;;;4.47;3.93;;;;;;;13.33;36.52;96818.47;5033417;28;20226;-83
2021/03/03 10:45:45;;;;;;;6.73;3.90;;;;;;;13.27;37.22;96824.31;5031348;28;20230;-84
2021/03/03 10:48:26;;;;;;;8.20;4.30;;;;;;;13.35;37.00;96820.88;5047908;28;20229;-85
2021/03/03 10:50:53;;;;;;;7.70;4.33;;;;;;;13.49;37.62;96826.19;5031348;28;20249;-85
2021/03/03 10:53:19;;;;;;;7.10;4.10;;;;;;;13.50;37.70;96824.41;5042001;28;20309;-86
2021/03/03 10:55:45;;;;;;;5.90;4.53;;;;;;;13.60;36.81;96819.88;5037524;28;20745;-82
2021/03/03 10:58:13;;;;;;;5.37;4.17;;;;;;;13.57;36.74;96827.97;5044795;28;20221;-83
2021/03/03 11:01:00;;;;;;;6.30;4.43;;;;;;;13.64;36.06;96828.13;5035136;28;20304;-85
2021/03/03 11:03:27;;;;;;;10.43;4.57;;;;;;;13.74;36.89;96823.56;5039795;28;20312;-85
2021/03/03 11:05:54;;;;;;;6.47;4.40;;;;;;;13.78;36.50;96819.69;5040098;28;20234;-85
2021/03/03 11:08:22;;;;;;;8.80;4.10;;;;;;;13.74;35.85;96819.19;5034555;28;20217;-83
2021/03/03 11:10:48;;;;;;;6.70;4.33;;;;;;;13.82;36.54;96818.38;5044220;28;20221;-86
2021/03/03 11:13:14;;;;;;;5.47;3.90;;;;;;;13.84;36.94;96816.44;5040878;28;20225;-84
2021/03/03 11:15:44;;;;;;;5.67;3.90;;;;;;;13.86;36.09;96808.47;5036670;28;20233;-83
2021/03/03 11:18:12;;;;;;;6.83;4.30;;;;;;;13.89;36.54;96813.31;5043035;28;20261;-85
2021/03/03 11:20:39;;;;;;;5.93;4.07;;;;;;;13.89;36.06;96813.31;5029312;28;20230;-84
2021/03/03 11:23:06;;;;;;;5.90;3.60;;;;;;;13.86;35.47;96800.72;5030581;28;20256;-84
2021/03/03 11:25:32;;;;;;;5.17;4.03;;;;;;;13.92;36.40;96806.03;5030903;28;20237;-84
2021/03/03 11:27:58;;;;;;;5.80;3.87;;;;;;;13.89;34.61;96800.38;5042581;28;20226;-83
2021/03/03 11:30:24;;;;;;;5.00;3.83;;;;;;;13.96;34.92;96799.56;5042426;28;20738;-87
2021/03/03 11:32:52;;;;;;;4.10;3.70;;;;;;;14.00;34.63;96795.66;5048528;28;20225;-82
2021/03/03 11:35:19;;;;;;;6.43;4.43;;;;;;;14.07;34.35;96790.59;5031421;28;20356;-84
2021/03/03 11:37:45;;;;;;;4.80;4.30;;;;;;;14.08;33.81;96789.63;5032320;28;20198;-86
2021/03/03 11:40:12;;;;;;;5.03;4.53;;;;;;;14.07;34.51;96786.22;5029013;28;20974;-86
2021/03/03 11:42:38;;;;;;;5.60;4.57;;;;;;;14.04;34.43;96788.38;5031267;28;20609;-87